Latest Weather Observations for Moorabbin Airport

IDV60901

Issued at 9:51 pm EST Wednesday 27 May 2015 (issued every 10 minutes, with the page automatically refreshed every 10 minutes)

About weather observations | Map of Melbourne area stations | Latest observations for Melbourne area | Other Formats
Station Details ID: 086077 Name: MOORABBIN AIRPORT Lat: -37.98 Lon: 145.10 Height: 12.1 m
Data from the previous 72 hours. | See also: Recent months at Moorabbin Airport
Date/Time
EST
Tmp

°C
App
Tmp
°C
Dew
Point
°C
Rel
Hum
%
Delta-T

°C
Wind Press
QNH
hPa
Press
MSL
hPa
Rain
since
9 am
mm
Dir
 
Spd
km/h
Gust
km/h
Spd
kts
Gust
kts
27/09:30pm 14.0 9.1 9.8 76 2.2 N 26 33 14 18 1018.1 1018.1 0.0
27/09:00pm 13.6 9.7 9.3 75 2.2 N 20 26 11 14 1018.4 1018.4 0.0
27/08:30pm 14.2 9.9 9.4 73 2.5 N 22 30 12 16 1018.5 1018.5 0.0
27/08:00pm 13.8 10.4 9.0 73 2.4 N 17 24 9 13 1018.5 1018.5 0.0
27/07:30pm 14.4 10.0 9.0 70 2.7 N 22 28 12 15 1018.5 1018.5 0.0
27/07:00pm 14.8 10.5 9.2 69 2.9 N 22 32 12 17 1018.5 1018.5 0.0
27/06:30pm 15.1 10.0 9.2 68 3.0 N 26 35 14 19 1018.2 1018.2 0.0
27/06:00pm 15.6 10.1 9.3 66 3.2 N 28 41 15 22 1017.9 1017.9 0.0
27/05:30pm 15.9 11.2 9.3 65 3.4 N 24 32 13 17 1017.9 1017.9 0.0
27/05:00pm 16.3 11.7 9.5 64 3.5 NNW 24 32 13 17 1017.7 1017.7 0.0
27/04:30pm 17.1 11.7 9.5 61 4.0 NNW 28 37 15 20 1017.4 1017.4 0.0
27/04:00pm 17.5 12.2 9.7 60 4.1 NNW 28 41 15 22 1017.3 1017.3 0.0
27/03:30pm 17.8 12.5 9.7 59 4.3 N 28 39 15 21 1017.4 1017.4 0.0
27/03:08pm 17.8 12.4 9.4 58 4.4 NNW 28 46 15 25 1017.3 1017.3 0.0
27/03:00pm 18.2 12.9 9.8 58 4.4 NNW 28 35 15 19 1017.4 1017.4 0.0
27/02:30pm 18.3 12.5 9.6 57 4.6 NNW 30 43 16 23 1017.3 1017.3 0.0
27/02:00pm 17.8 12.1 9.7 59 4.3 N 30 37 16 20 1017.4 1017.4 0.0
27/01:30pm 17.0 11.6 9.4 61 4.0 N 28 35 15 19 1018.0 1018.0 0.0
27/01:00pm 16.8 11.5 10.0 64 3.6 N 28 35 15 19 1018.4 1018.4 0.0
27/12:30pm 16.1 10.9 8.8 62 3.7 N 26 35 14 19 1018.6 1018.6 0.0
27/12:03pm 16.2 10.8 9.6 65 3.4 N 28 46 15 25 1019.2 1019.2 0.0
27/12:00pm 16.9 11.0 10.5 66 3.4 N 32 46 17 25 1019.3 1019.3 0.0
27/11:30am 16.2 11.4 8.7 61 3.8 N 24 32 13 17 1019.7 1019.7 0.0
27/11:00am 15.5 11.4 8.5 63 3.5 N 20 28 11 15 1020.3 1020.3 0.0
27/10:30am 15.6 9.9 8.4 62 3.6 N 28 35 15 19 1020.5 1020.5 0.0
27/10:00am 15.2 9.5 8.2 63 3.5 N 28 39 15 21 1020.6 1020.6 0.0
27/09:30am 14.3 9.2 7.8 65 3.2 N 24 32 13 17 1020.4 1020.4 0.0
27/09:00am 14.0 8.1 7.3 64 3.3 N 28 35 15 19 1020.3 1020.3 0.2
27/08:30am 13.5 7.9 7.3 66 3.0 N 26 35 14 19 1020.2 1020.2 0.2
27/08:00am 13.1 7.9 7.3 68 2.8 N 24 30 13 16 1020.2 1020.2 0.2
27/07:30am 12.6 8.2 7.3 70 2.6 N 20 26 11 14 1020.4 1020.4 0.2
27/07:00am 12.5 8.4 7.8 73 2.3 N 19 24 10 13 1020.2 1020.2 0.2
27/06:30am 12.5 8.1 7.6 72 2.4 NNE 20 28 11 15 1020.2 1020.2 0.2
27/06:00am 12.2 8.2 8.1 76 2.0 N 19 24 10 13 1020.3 1020.3 0.2
27/05:30am 12.7 8.3 7.4 70 2.6 N 20 24 11 13 1020.6 1020.6 0.0
27/05:00am 12.6 8.3 6.9 68 2.7 N 19 22 10 12 1020.6 1020.6 0.0
27/04:30am 12.8 8.3 7.0 68 2.8 N 20 28 11 15 1020.6 1020.6 0.0
27/04:00am 12.0 8.1 6.9 71 2.4 N 17 19 9 10 1020.8 1020.8 0.0
27/03:30am 11.1 7.8 6.6 74 2.1 N 13 15 7 8 1021.0 1021.0 0.0
27/03:00am 11.4 8.1 6.5 72 2.3 N 13 17 7 9 1021.3 1021.3 0.0
27/02:30am 12.0 8.0 6.7 70 2.5 N 17 20 9 11 1021.7 1021.7 0.0
27/02:00am 11.9 7.6 6.8 71 2.4 N 19 22 10 12 1021.8 1021.8 0.0
27/01:30am 11.9 7.9 6.8 71 2.4 N 17 20 9 11 1021.9 1021.9 0.0
27/01:00am 11.7 8.5 6.8 72 2.3 N 13 17 7 9 1022.2 1022.2 0.0
27/12:30am 12.0 7.5 6.9 71 2.4 NNE 20 26 11 14 1022.5 1022.5 0.0
27/12:00am 10.7 7.5 7.0 78 1.7 NNE 13 15 7 8 1023.0 1023.0 0.0
 
Date/Time
EST
Tmp

°C
App
Tmp
°C
Dew
Point
°C
Rel
Hum
%
Delta-T

°C
Wind Press
QNH
hPa
Press
MSL
hPa
Rain
since
9 am
mm
Dir
 
Spd
km/h
Gust
km/h
Spd
kts
Gust
kts
26/11:30pm 10.7 7.8 6.6 76 1.9 N 11 13 6 7 1023.5 1023.5 0.0
26/11:00pm 11.5 8.7 6.8 73 2.2 N 11 13 6 7 1023.6 1023.6 0.0
26/10:30pm 11.1 7.8 6.6 74 2.1 N 13 15 7 8 1023.6 1023.6 0.0
26/10:00pm 11.8 9.0 6.9 72 2.3 N 11 13 6 7 1023.9 1023.9 0.0
26/09:30pm 11.5 9.1 7.2 75 2.1 N 9 11 5 6 1023.9 1023.9 0.0
26/09:00pm 11.5 9.6 7.4 76 2.0 N 7 9 4 5 1023.9 1023.9 0.0
26/08:30pm 10.9 8.1 7.0 77 1.9 N 11 13 6 7 1023.9 1023.9 0.0
26/08:00pm 12.1 8.7 7.6 74 2.2 N 15 17 8 9 1024.3 1024.3 0.0
26/07:30pm 12.8 10.6 7.9 72 2.4 N 9 11 5 6 1024.5 1024.5 0.0
26/07:00pm 13.0 10.1 8.3 73 2.3 N 13 15 7 8 1024.8 1024.8 0.0
26/06:30pm 13.0 10.5 8.1 72 2.4 N 11 13 6 7 1024.8 1024.8 0.0
26/06:00pm 13.3 11.2 8.2 71 2.5 NNE 9 11 5 6 1024.7 1024.7 0.0
26/05:30pm 13.8 11.7 8.2 69 2.8 NNE 9 11 5 6 1024.5 1024.5 0.0
26/05:00pm 14.4 11.6 8.4 67 3.0 NNE 13 17 7 9 1024.6 1024.6 0.0
26/04:30pm 14.5 11.3 8.5 67 3.0 N 15 19 8 10 1024.9 1024.9 0.0
26/04:00pm 14.7 12.3 8.6 67 3.1 N 11 15 6 8 1025.2 1025.2 0.0
26/03:30pm 15.1 13.0 8.3 64 3.4 N 9 13 5 7 1025.2 1025.2 0.0
26/03:00pm 15.3 12.3 7.8 61 3.7 N 13 15 7 8 1025.3 1025.3 0.0
26/02:30pm 15.1 12.2 8.1 63 3.5 N 13 15 7 8 1025.5 1025.5 0.0
26/02:00pm 15.6 12.7 8.1 61 3.8 N 13 17 7 9 1026.0 1026.0 0.0
26/01:30pm 15.4 12.8 7.7 60 3.8 NNE 11 15 6 8 1026.3 1026.3 0.0
26/01:00pm 15.5 13.1 7.0 57 4.2 NNW 9 11 5 6 1026.6 1026.6 0.0
26/12:30pm 15.5 12.2 6.5 55 4.4 N 13 17 7 9 1027.1 1027.1 0.0
26/12:00pm 15.8 13.4 6.8 55 4.4 N 9 13 5 7 1027.4 1027.4 0.0
26/11:30am 14.7 12.6 6.5 58 4.0 N 7 11 4 6 1028.0 1028.1 0.0
26/11:00am 13.9 11.4 6.7 62 3.5 N 9 11 5 6 1028.9 1029.0 0.0
26/10:30am 13.4 11.3 6.5 63 3.3 N 7 11 4 6 1029.3 1029.4 0.0
26/10:00am 12.7 10.7 7.0 68 2.7 N 7 9 4 5 1029.4 1029.5 0.0
26/09:30am 10.6 8.5 5.8 72 2.2 N 6 9 3 5 1029.4 1029.5 0.0
26/09:00am 8.9 8.1 6.3 84 1.2 CALM 0 6 0 3 1029.6 1029.7 0.0
26/08:30am 6.3 5.0 4.3 87 0.9 CALM 0 0 0 0 1029.6 1029.7 0.0
26/08:00am 4.9 3.4 3.2 89 0.7 CALM 0 0 0 0 1029.5 1029.6 0.0
26/07:30am 3.6 1.9 1.6 87 0.8 CALM 0 0 0 0 1029.3 1029.4 0.0
26/07:00am 4.4 1.7 2.6 88 0.7 NNW 6 9 3 5 1029.2 1029.3 0.0
26/06:30am 4.1 2.4 2.1 87 0.8 CALM 0 0 0 0 1029.1 1029.2 0.0
26/06:00am 4.3 2.6 1.7 83 1.0 CALM 0 0 0 0 1029.0 1029.1 0.0
26/05:30am 6.1 3.4 2.9 80 1.3 NNW 6 7 3 4 1029.0 1029.1 0.0
26/05:00am 6.5 3.8 3.5 81 1.3 NNW 7 9 4 5 1028.9 1029.0 0.0
26/04:30am 7.0 4.3 3.6 79 1.4 N 7 9 4 5 1029.1 1029.2 0.0
26/04:00am 6.6 3.5 3.4 80 1.3 NNW 9 11 5 6 1029.0 1029.1 0.0
26/03:30am 6.8 4.1 3.9 82 1.2 NNW 7 9 4 5 1029.0 1029.1 0.0
26/03:00am 6.4 3.7 3.7 83 1.1 NNW 7 7 4 4 1029.3 1029.4 0.0
26/02:30am 6.8 4.3 3.6 80 1.4 N 6 7 3 4 1029.4 1029.5 0.0
26/02:00am 7.5 4.9 4.3 80 1.4 N 7 7 4 4 1029.4 1029.5 0.0
26/01:30am 7.7 4.7 4.1 78 1.6 N 9 11 5 6 1029.3 1029.4 0.0
26/01:00am 7.7 4.7 4.1 78 1.5 N 9 11 5 6 1029.5 1029.6 0.0
26/12:30am 7.8 4.8 4.0 77 1.6 N 9 11 5 6 1029.6 1029.7 0.0
26/12:00am 8.4 5.5 4.8 78 1.6 N 9 11 5 6 1029.7 1029.8 0.0
 
Date/Time
EST
Tmp

°C
App
Tmp
°C
Dew
Point
°C
Rel
Hum
%
Delta-T

°C
Wind Press
QNH
hPa
Press
MSL
hPa
Rain
since
9 am
mm
Dir
 
Spd
km/h
Gust
km/h
Spd
kts
Gust
kts
25/11:30pm 7.8 5.0 5.1 83 1.2 N 9 11 5 6 1029.7 1029.8 0.0
25/11:00pm 8.2 5.5 5.5 83 1.2 N 9 11 5 6 1029.8 1029.9 0.0
25/10:30pm 8.3 5.4 4.9 79 1.5 NNE 9 11 5 6 1030.1 1030.1 0.0
25/10:00pm 8.9 6.1 5.3 78 1.6 N 9 11 5 6 1030.3 1030.3 0.0
25/09:30pm 9.1 5.6 5.3 77 1.7 N 13 17 7 9 1030.3 1030.3 0.0
25/09:00pm 9.6 5.8 5.8 77 1.7 N 15 17 8 9 1030.3 1030.3 0.0
25/08:30pm 9.7 6.3 5.7 76 1.8 N 13 15 7 8 1030.3 1030.3 0.0
25/08:00pm 9.7 6.7 5.9 77 1.7 NNE 11 13 6 7 1030.2 1030.2 0.0
25/07:30pm 10.1 7.5 5.9 75 1.9 N 9 11 5 6 1030.1 1030.1 0.0
25/07:00pm 10.9 8.3 6.1 72 2.2 NNE 9 9 5 5 1029.7 1029.8 0.0
25/06:30pm 11.4 8.5 6.3 71 2.4 NNE 11 11 6 6 1029.5 1029.6 0.0
25/06:00pm 11.2 8.2 5.9 70 2.4 NE 11 13 6 7 1029.1 1029.2 0.0
25/05:30pm 12.8 10.4 6.8 67 2.9 NNE 9 11 5 6 1028.9 1029.0 0.0
25/05:00pm 13.7 11.6 6.8 63 3.3 NNE 7 9 4 5 1028.6 1028.7 0.0
25/04:30pm 13.9 11.4 6.5 61 3.6 NNE 9 11 5 6 1028.6 1028.7 0.0
25/04:00pm 15.3 12.8 6.6 56 4.2 N 9 11 5 6 1028.7 1028.8 0.0
25/03:30pm 16.3 13.3 5.9 50 5.0 N 11 17 6 9 1028.7 1028.8 0.0
25/03:00pm 16.5 13.2 6.3 51 4.9 N 13 19 7 10 1028.7 1028.8 0.0
25/02:30pm 16.4 12.8 6.8 53 4.7 N 15 19 8 10 1028.9 1029.0 0.0
25/02:00pm 16.4 12.8 6.8 53 4.7 N 15 20 8 11 1029.2 1029.3 0.0
25/01:30pm 16.1 12.5 6.8 54 4.6 N 15 20 8 11 1029.4 1029.5 0.0
25/01:00pm 15.5 12.0 7.0 57 4.1 N 15 19 8 10 1029.8 1029.9 0.0
25/12:30pm 15.2 12.0 7.0 58 4.0 N 13 17 7 9 1030.3 1030.3 0.0
25/12:00pm 14.5 10.5 6.8 60 3.7 N 17 20 9 11 1030.7 1030.7 0.0
25/11:30am 13.5 9.1 6.6 63 3.3 N 19 26 10 14 1031.1 1031.1 0.0
25/11:00am 13.1 9.6 7.1 67 2.9 N 15 20 8 11 1031.5 1031.5 0.0
25/10:30am 12.3 8.6 6.1 66 2.9 N 15 20 8 11 1031.6 1031.6 0.0
25/10:00am 11.9 8.6 6.2 68 2.7 N 13 15 7 8 1031.5 1031.5 0.0
25/09:30am 11.7 8.8 6.4 70 2.5 NNW 11 13 6 7 1031.6 1031.6 0.0
25/09:00am 10.9 7.5 6.1 72 2.2 N 13 17 7 9 1031.6 1031.6 0.0
25/08:30am 10.1 7.1 5.9 75 1.9 N 11 15 6 8 1031.5 1031.5 0.0
25/08:00am 9.4 6.6 5.2 75 1.9 N 9 13 5 7 1031.4 1031.4 0.0
25/07:30am 9.6 6.1 5.6 76 1.8 N 13 17 7 9 1031.2 1031.2 0.0
25/07:00am 9.0 6.6 5.2 77 1.7 N 7 9 4 5 1031.2 1031.2 0.0
25/06:30am 8.9 6.6 4.9 76 1.8 NNW 6 7 3 4 1031.1 1031.1 0.0
25/06:00am 9.1 6.2 4.7 74 1.9 N 9 13 5 7 1030.6 1030.6 0.0
25/05:30am 9.2 6.8 5.2 76 1.8 N 7 9 4 5 1030.0 1030.0 0.0
25/05:00am 9.2 6.1 5.4 77 1.7 NNE 11 13 6 7 1029.8 1029.9 0.0
25/04:30am 9.1 5.9 5.3 77 1.7 NNE 11 13 6 7 1030.1 1030.1 0.0
25/04:00am 8.2 7.0 4.6 78 1.6 CALM 0 6 0 3 1029.8 1029.9 0.0
25/03:30am 9.0 6.2 5.0 76 1.8 N 9 11 5 6 1030.2 1030.2 0.0
25/03:00am 9.0 6.6 5.2 77 1.7 N 7 9 4 5 1030.5 1030.5 0.0
25/02:30am 8.5 6.1 5.1 79 1.5 N 7 9 4 5 1030.4 1030.4 0.0
25/02:00am 7.8 4.5 4.7 81 1.3 N 11 13 6 7 1030.5 1030.5 0.0
25/01:30am 8.1 5.6 4.5 78 1.6 N 7 9 4 5 1030.4 1030.4 0.0
25/01:00am 8.2 5.3 4.8 79 1.5 N 9 11 5 6 1030.7 1030.7 0.0
25/12:30am 8.6 5.4 5.2 79 1.5 N 11 15 6 8 1031.0 1031.0 0.0
25/12:00am 8.2 5.4 5.0 80 1.4 N 9 11 5 6 1030.9 1030.9 0.0
 
Date/Time
EST
Tmp

°C
App
Tmp
°C
Dew
Point
°C
Rel
Hum
%
Delta-T

°C
Wind Press
QNH
hPa
Press
MSL
hPa
Rain
since
9 am
mm
Dir
 
Spd
km/h
Gust
km/h
Spd
kts
Gust
kts
24/11:30pm 9.1 5.5 5.1 76 1.8 N 13 15 7 8 1031.0 1031.0 0.0
24/11:00pm 9.3 5.4 5.3 76 1.8 N 15 19 8 10 1031.0 1031.0 0.0
24/10:30pm 9.5 6.3 5.3 75 1.9 NNW 11 15 6 8 1031.1 1031.1 0.0
24/10:00pm 9.4 6.6 5.2 75 1.9 NW 9 13 5 7 1031.2 1031.2 0.0

Latest Capital City Observations: Canberra | Sydney | Melbourne | Brisbane | Adelaide | Perth | Hobart | Darwin

Other Formats:

Comma delimited format used in spreadsheet applications
http://www.bom.gov.au/fwo/IDV60901/IDV60901.94870.axf

JavaScript Object Notation format (JSON) in row-major order
http://www.bom.gov.au/fwo/IDV60901/IDV60901.94870.json